sensor_id;sensor_type;location;lat;lon;timestamp;P1;durP1;ratioP1;P2;durP2;ratioP2
5418;SDS011;2732;52.092;11.556;2022-09-16T00:00:35;2.13;;;1.10;;
5418;SDS011;2732;52.092;11.556;2022-09-16T00:05:41;2.70;;;1.33;;
5418;SDS011;2732;52.092;11.556;2022-09-16T00:10:47;2.60;;;1.20;;
5418;SDS011;2732;52.092;11.556;2022-09-16T00:15:49;5.70;;;1.43;;
5418;SDS011;2732;52.092;11.556;2022-09-16T00:20:50;2.03;;;1.00;;
5418;SDS011;2732;52.092;11.556;2022-09-16T00:25:54;11.97;;;1.33;;
5418;SDS011;2732;52.092;11.556;2022-09-16T00:30:59;2.83;;;1.00;;
5418;SDS011;2732;52.092;11.556;2022-09-16T00:36:07;10.33;;;1.20;;
5418;SDS011;2732;52.092;11.556;2022-09-16T00:41:13;3.60;;;1.10;;
5418;SDS011;2732;52.092;11.556;2022-09-16T00:46:39;2.27;;;1.10;;
5418;SDS011;2732;52.092;11.556;2022-09-16T00:51:45;2.80;;;0.83;;
5418;SDS011;2732;52.092;11.556;2022-09-16T00:56:50;2.47;;;0.73;;
5418;SDS011;2732;52.092;11.556;2022-09-16T01:01:55;2.90;;;1.10;;
5418;SDS011;2732;52.092;11.556;2022-09-16T01:06:59;3.70;;;0.83;;
5418;SDS011;2732;52.092;11.556;2022-09-16T01:12:00;2.83;;;1.07;;
5418;SDS011;2732;52.092;11.556;2022-09-16T01:17:14;6.57;;;0.83;;
5418;SDS011;2732;52.092;11.556;2022-09-16T01:39:38;4.80;;;1.10;;
5418;SDS011;2732;52.092;11.556;2022-09-16T01:50:44;1.33;;;1.03;;
5418;SDS011;2732;52.092;11.556;2022-09-16T01:55:58;6.97;;;0.90;;
5418;SDS011;2732;52.092;11.556;2022-09-16T02:01:07;2.90;;;0.80;;
5418;SDS011;2732;52.092;11.556;2022-09-16T02:06:17;1.13;;;0.70;;
5418;SDS011;2732;52.092;11.556;2022-09-16T02:11:22;2.23;;;0.87;;
5418;SDS011;2732;52.092;11.556;2022-09-16T02:16:45;4.53;;;1.10;;
5418;SDS011;2732;52.092;11.556;2022-09-16T02:22:07;4.70;;;0.90;;
5418;SDS011;2732;52.092;11.556;2022-09-16T02:27:14;3.53;;;0.90;;
5418;SDS011;2732;52.092;11.556;2022-09-16T02:32:17;5.60;;;0.70;;
5418;SDS011;2732;52.092;11.556;2022-09-16T02:37:41;4.00;;;1.00;;
5418;SDS011;2732;52.092;11.556;2022-09-16T02:42:55;2.33;;;1.00;;
5418;SDS011;2732;52.092;11.556;2022-09-16T02:53:12;7.63;;;0.90;;
5418;SDS011;2732;52.092;11.556;2022-09-16T02:58:35;1.50;;;0.60;;
5418;SDS011;2732;52.092;11.556;2022-09-16T03:03:36;7.40;;;1.33;;
5418;SDS011;2732;52.092;11.556;2022-09-16T03:08:37;3.03;;;1.10;;
5418;SDS011;2732;52.092;11.556;2022-09-16T03:13:47;5.03;;;1.20;;
5418;SDS011;2732;52.092;11.556;2022-09-16T03:25:06;6.13;;;1.20;;
5418;SDS011;2732;52.092;11.556;2022-09-16T03:30:42;2.60;;;1.17;;
5418;SDS011;2732;52.092;11.556;2022-09-16T03:36:06;4.47;;;1.10;;
5418;SDS011;2732;52.092;11.556;2022-09-16T03:41:13;3.97;;;1.57;;
5418;SDS011;2732;52.092;11.556;2022-09-16T03:46:15;7.77;;;1.77;;
5418;SDS011;2732;52.092;11.556;2022-09-16T03:51:16;2.90;;;1.77;;
5418;SDS011;2732;52.092;11.556;2022-09-16T03:56:17;2.33;;;2.20;;
5418;SDS011;2732;52.092;11.556;2022-09-16T04:01:18;1.53;;;1.43;;
5418;SDS011;2732;52.092;11.556;2022-09-16T04:06:19;2.90;;;2.07;;
5418;SDS011;2732;52.092;11.556;2022-09-16T04:11:19;6.53;;;1.70;;
5418;SDS011;2732;52.092;11.556;2022-09-16T04:16:20;4.93;;;1.93;;
5418;SDS011;2732;52.092;11.556;2022-09-16T04:21:21;6.63;;;1.40;;
5418;SDS011;2732;52.092;11.556;2022-09-16T04:26:22;4.30;;;1.17;;
5418;SDS011;2732;52.092;11.556;2022-09-16T04:31:23;4.10;;;1.13;;
5418;SDS011;2732;52.092;11.556;2022-09-16T04:36:24;5.03;;;1.20;;
5418;SDS011;2732;52.092;11.556;2022-09-16T04:41:25;6.07;;;1.30;;
5418;SDS011;2732;52.092;11.556;2022-09-16T04:46:27;1.97;;;1.20;;
5418;SDS011;2732;52.092;11.556;2022-09-16T04:51:29;4.73;;;1.77;;
5418;SDS011;2732;52.092;11.556;2022-09-16T04:56:31;5.37;;;1.60;;
5418;SDS011;2732;52.092;11.556;2022-09-16T05:01:33;2.77;;;1.40;;
5418;SDS011;2732;52.092;11.556;2022-09-16T05:06:38;4.53;;;1.33;;
5418;SDS011;2732;52.092;11.556;2022-09-16T05:11:40;1.70;;;1.60;;
5418;SDS011;2732;52.092;11.556;2022-09-16T05:16:41;3.07;;;2.00;;
5418;SDS011;2732;52.092;11.556;2022-09-16T05:21:42;9.00;;;1.70;;
5418;SDS011;2732;52.092;11.556;2022-09-16T05:26:43;11.20;;;1.57;;
5418;SDS011;2732;52.092;11.556;2022-09-16T05:31:44;6.20;;;2.40;;
5418;SDS011;2732;52.092;11.556;2022-09-16T05:36:48;5.13;;;1.80;;
5418;SDS011;2732;52.092;11.556;2022-09-16T05:41:53;1.80;;;1.70;;
5418;SDS011;2732;52.092;11.556;2022-09-16T05:46:58;6.80;;;2.10;;
5418;SDS011;2732;52.092;11.556;2022-09-16T05:51:59;5.70;;;2.03;;
5418;SDS011;2732;52.092;11.556;2022-09-16T05:56:59;6.00;;;2.40;;
5418;SDS011;2732;52.092;11.556;2022-09-16T06:02:00;5.13;;;2.13;;
5418;SDS011;2732;52.092;11.556;2022-09-16T06:07:01;10.90;;;2.53;;
5418;SDS011;2732;52.092;11.556;2022-09-16T06:12:02;5.60;;;2.27;;
5418;SDS011;2732;52.092;11.556;2022-09-16T06:17:03;3.30;;;3.03;;
5418;SDS011;2732;52.092;11.556;2022-09-16T06:22:04;2.83;;;2.57;;
5418;SDS011;2732;52.092;11.556;2022-09-16T06:27:04;4.43;;;2.70;;
5418;SDS011;2732;52.092;11.556;2022-09-16T06:32:05;5.23;;;2.50;;
5418;SDS011;2732;52.092;11.556;2022-09-16T06:37:05;7.60;;;2.03;;
5418;SDS011;2732;52.092;11.556;2022-09-16T06:42:06;2.73;;;2.17;;
5418;SDS011;2732;52.092;11.556;2022-09-16T06:47:08;2.37;;;2.17;;
5418;SDS011;2732;52.092;11.556;2022-09-16T06:52:08;2.23;;;1.70;;
5418;SDS011;2732;52.092;11.556;2022-09-16T06:57:10;2.50;;;1.90;;
5418;SDS011;2732;52.092;11.556;2022-09-16T07:02:11;4.67;;;2.17;;
5418;SDS011;2732;52.092;11.556;2022-09-16T07:07:12;3.73;;;2.13;;
5418;SDS011;2732;52.092;11.556;2022-09-16T07:12:12;4.47;;;2.33;;
5418;SDS011;2732;52.092;11.556;2022-09-16T07:17:13;2.37;;;2.10;;
5418;SDS011;2732;52.092;11.556;2022-09-16T07:22:13;2.60;;;2.10;;
5418;SDS011;2732;52.092;11.556;2022-09-16T07:27:14;8.80;;;2.30;;
5418;SDS011;2732;52.092;11.556;2022-09-16T07:32:15;4.90;;;2.20;;
5418;SDS011;2732;52.092;11.556;2022-09-16T07:37:15;3.20;;;1.77;;
5418;SDS011;2732;52.092;11.556;2022-09-16T07:42:17;2.97;;;1.47;;
5418;SDS011;2732;52.092;11.556;2022-09-16T07:47:18;2.30;;;1.20;;
5418;SDS011;2732;52.092;11.556;2022-09-16T07:52:18;4.00;;;1.50;;
5418;SDS011;2732;52.092;11.556;2022-09-16T07:57:19;3.27;;;1.20;;
5418;SDS011;2732;52.092;11.556;2022-09-16T08:02:21;4.70;;;1.10;;
5418;SDS011;2732;52.092;11.556;2022-09-16T08:07:21;4.17;;;1.20;;
5418;SDS011;2732;52.092;11.556;2022-09-16T08:12:22;2.60;;;1.33;;
5418;SDS011;2732;52.092;11.556;2022-09-16T08:17:22;4.90;;;1.30;;
5418;SDS011;2732;52.092;11.556;2022-09-16T08:22:23;5.30;;;1.23;;
5418;SDS011;2732;52.092;11.556;2022-09-16T08:27:24;4.33;;;1.13;;
5418;SDS011;2732;52.092;11.556;2022-09-16T08:32:25;5.43;;;1.80;;
5418;SDS011;2732;52.092;11.556;2022-09-16T08:37:26;4.80;;;1.20;;
5418;SDS011;2732;52.092;11.556;2022-09-16T08:48:00;3.43;;;1.47;;
5418;SDS011;2732;52.092;11.556;2022-09-16T08:53:26;2.77;;;1.03;;
5418;SDS011;2732;52.092;11.556;2022-09-16T08:59:10;0.87;;;0.87;;
5418;SDS011;2732;52.092;11.556;2022-09-16T09:04:17;3.63;;;0.97;;
5418;SDS011;2732;52.092;11.556;2022-09-16T09:09:40;7.40;;;1.00;;
5418;SDS011;2732;52.092;11.556;2022-09-16T09:20:43;2.47;;;0.60;;
5418;SDS011;2732;52.092;11.556;2022-09-16T09:26:19;6.87;;;1.57;;
5418;SDS011;2732;52.092;11.556;2022-09-16T09:43:04;11.70;;;1.00;;
5418;SDS011;2732;52.092;11.556;2022-09-16T09:48:26;4.10;;;0.83;;
5418;SDS011;2732;52.092;11.556;2022-09-16T09:53:43;2.60;;;0.90;;
5418;SDS011;2732;52.092;11.556;2022-09-16T09:59:00;3.23;;;1.23;;
5418;SDS011;2732;52.092;11.556;2022-09-16T10:04:24;3.63;;;0.77;;
5418;SDS011;2732;52.092;11.556;2022-09-16T10:09:25;4.83;;;0.83;;
5418;SDS011;2732;52.092;11.556;2022-09-16T10:14:33;4.67;;;0.83;;
5418;SDS011;2732;52.092;11.556;2022-09-16T10:19:49;4.23;;;0.97;;
5418;SDS011;2732;52.092;11.556;2022-09-16T10:25:05;3.97;;;1.03;;
5418;SDS011;2732;52.092;11.556;2022-09-16T10:30:26;5.27;;;0.50;;
5418;SDS011;2732;52.092;11.556;2022-09-16T10:35:32;4.67;;;1.10;;
5418;SDS011;2732;52.092;11.556;2022-09-16T10:40:36;1.93;;;0.90;;
5418;SDS011;2732;52.092;11.556;2022-09-16T10:45:42;2.57;;;0.60;;
5418;SDS011;2732;52.092;11.556;2022-09-16T10:50:54;1.27;;;0.60;;
5418;SDS011;2732;52.092;11.556;2022-09-16T10:56:01;2.40;;;0.83;;
5418;SDS011;2732;52.092;11.556;2022-09-16T11:01:36;3.80;;;1.00;;
5418;SDS011;2732;52.092;11.556;2022-09-16T11:12:43;2.80;;;0.80;;
5418;SDS011;2732;52.092;11.556;2022-09-16T11:23:54;6.30;;;1.17;;
5418;SDS011;2732;52.092;11.556;2022-09-16T11:46:01;4.43;;;1.30;;
5418;SDS011;2732;52.092;11.556;2022-09-16T11:57:15;3.73;;;1.17;;
5418;SDS011;2732;52.092;11.556;2022-09-16T12:02:24;5.47;;;1.10;;
5418;SDS011;2732;52.092;11.556;2022-09-16T12:07:38;4.77;;;1.10;;
5418;SDS011;2732;52.092;11.556;2022-09-16T12:12:55;3.43;;;0.87;;
5418;SDS011;2732;52.092;11.556;2022-09-16T12:18:14;6.83;;;0.87;;
5418;SDS011;2732;52.092;11.556;2022-09-16T12:23:30;1.00;;;0.77;;
5418;SDS011;2732;52.092;11.556;2022-09-16T12:28:43;2.77;;;0.80;;
5418;SDS011;2732;52.092;11.556;2022-09-16T12:34:22;1.80;;;0.77;;
5418;SDS011;2732;52.092;11.556;2022-09-16T12:39:28;2.97;;;0.80;;
5418;SDS011;2732;52.092;11.556;2022-09-16T12:44:43;1.90;;;0.73;;
5418;SDS011;2732;52.092;11.556;2022-09-16T12:55:59;2.33;;;0.90;;
5418;SDS011;2732;52.092;11.556;2022-09-16T13:01:29;2.57;;;0.80;;
5418;SDS011;2732;52.092;11.556;2022-09-16T13:06:36;5.13;;;1.20;;
5418;SDS011;2732;52.092;11.556;2022-09-16T13:11:58;7.40;;;1.00;;
5418;SDS011;2732;52.092;11.556;2022-09-16T13:17:02;4.00;;;1.30;;
5418;SDS011;2732;52.092;11.556;2022-09-16T13:22:14;2.03;;;0.70;;
5418;SDS011;2732;52.092;11.556;2022-09-16T13:27:37;4.83;;;0.93;;
5418;SDS011;2732;52.092;11.556;2022-09-16T13:32:55;2.63;;;0.70;;
5418;SDS011;2732;52.092;11.556;2022-09-16T13:37:58;4.07;;;0.90;;
5418;SDS011;2732;52.092;11.556;2022-09-16T13:43:36;6.73;;;0.97;;
5418;SDS011;2732;52.092;11.556;2022-09-16T13:48:55;3.43;;;0.90;;
5418;SDS011;2732;52.092;11.556;2022-09-16T13:54:21;5.33;;;0.73;;
5418;SDS011;2732;52.092;11.556;2022-09-16T13:59:44;2.73;;;0.87;;
5418;SDS011;2732;52.092;11.556;2022-09-16T14:11:00;6.43;;;0.77;;
5418;SDS011;2732;52.092;11.556;2022-09-16T14:16:12;0.97;;;0.50;;
5418;SDS011;2732;52.092;11.556;2022-09-16T14:21:24;1.60;;;0.70;;
5418;SDS011;2732;52.092;11.556;2022-09-16T14:26:24;6.33;;;0.80;;
5418;SDS011;2732;52.092;11.556;2022-09-16T14:31:25;6.10;;;1.00;;
5418;SDS011;2732;52.092;11.556;2022-09-16T14:36:29;2.47;;;0.93;;
5418;SDS011;2732;52.092;11.556;2022-09-16T14:41:36;1.73;;;0.87;;
5418;SDS011;2732;52.092;11.556;2022-09-16T14:51:59;2.80;;;0.77;;
5418;SDS011;2732;52.092;11.556;2022-09-16T14:57:09;4.00;;;0.87;;
5418;SDS011;2732;52.092;11.556;2022-09-16T15:02:25;0.70;;;0.70;;
5418;SDS011;2732;52.092;11.556;2022-09-16T15:07:33;4.33;;;0.87;;
5418;SDS011;2732;52.092;11.556;2022-09-16T15:12:39;1.50;;;0.50;;
5418;SDS011;2732;52.092;11.556;2022-09-16T15:17:51;2.10;;;0.70;;
5418;SDS011;2732;52.092;11.556;2022-09-16T15:23:01;4.20;;;0.87;;
5418;SDS011;2732;52.092;11.556;2022-09-16T15:28:03;3.83;;;1.43;;
5418;SDS011;2732;52.092;11.556;2022-09-16T15:38:35;3.97;;;1.07;;
5418;SDS011;2732;52.092;11.556;2022-09-16T15:43:36;2.20;;;1.07;;
5418;SDS011;2732;52.092;11.556;2022-09-16T15:48:47;6.20;;;1.00;;
5418;SDS011;2732;52.092;11.556;2022-09-16T15:53:52;3.73;;;0.77;;
5418;SDS011;2732;52.092;11.556;2022-09-16T15:58:59;2.80;;;0.70;;
5418;SDS011;2732;52.092;11.556;2022-09-16T16:04:24;3.03;;;0.90;;
5418;SDS011;2732;52.092;11.556;2022-09-16T16:09:34;0.87;;;0.60;;
5418;SDS011;2732;52.092;11.556;2022-09-16T16:14:39;3.60;;;0.90;;
5418;SDS011;2732;52.092;11.556;2022-09-16T16:19:40;2.50;;;0.77;;
5418;SDS011;2732;52.092;11.556;2022-09-16T16:24:44;2.30;;;0.73;;
5418;SDS011;2732;52.092;11.556;2022-09-16T16:29:44;4.90;;;0.97;;
5418;SDS011;2732;52.092;11.556;2022-09-16T16:34:46;1.43;;;0.83;;
5418;SDS011;2732;52.092;11.556;2022-09-16T16:39:50;6.33;;;1.13;;
5418;SDS011;2732;52.092;11.556;2022-09-16T16:44:51;2.20;;;0.80;;
5418;SDS011;2732;52.092;11.556;2022-09-16T16:49:52;5.57;;;0.77;;
5418;SDS011;2732;52.092;11.556;2022-09-16T16:54:52;1.27;;;0.83;;
5418;SDS011;2732;52.092;11.556;2022-09-16T16:59:53;1.77;;;0.60;;
5418;SDS011;2732;52.092;11.556;2022-09-16T17:04:53;1.80;;;0.93;;
5418;SDS011;2732;52.092;11.556;2022-09-16T17:09:55;2.80;;;0.73;;
5418;SDS011;2732;52.092;11.556;2022-09-16T17:14:58;5.70;;;0.70;;
5418;SDS011;2732;52.092;11.556;2022-09-16T17:19:59;1.53;;;0.60;;
5418;SDS011;2732;52.092;11.556;2022-09-16T17:24:59;2.93;;;0.60;;
5418;SDS011;2732;52.092;11.556;2022-09-16T17:30:00;8.17;;;0.87;;
5418;SDS011;2732;52.092;11.556;2022-09-16T17:35:01;1.20;;;0.47;;
5418;SDS011;2732;52.092;11.556;2022-09-16T17:40:02;4.10;;;0.73;;
5418;SDS011;2732;52.092;11.556;2022-09-16T17:45:03;1.57;;;0.40;;
5418;SDS011;2732;52.092;11.556;2022-09-16T17:50:05;1.30;;;0.80;;
5418;SDS011;2732;52.092;11.556;2022-09-16T17:55:06;1.13;;;0.47;;
5418;SDS011;2732;52.092;11.556;2022-09-16T18:00:07;2.93;;;0.47;;
5418;SDS011;2732;52.092;11.556;2022-09-16T18:05:09;1.67;;;0.57;;
5418;SDS011;2732;52.092;11.556;2022-09-16T18:10:09;1.00;;;0.60;;
5418;SDS011;2732;52.092;11.556;2022-09-16T18:15:10;3.40;;;0.83;;
5418;SDS011;2732;52.092;11.556;2022-09-16T18:20:10;1.07;;;0.50;;
5418;SDS011;2732;52.092;11.556;2022-09-16T18:25:11;0.93;;;0.80;;
5418;SDS011;2732;52.092;11.556;2022-09-16T18:30:12;4.97;;;0.70;;
5418;SDS011;2732;52.092;11.556;2022-09-16T18:35:12;2.20;;;0.70;;
5418;SDS011;2732;52.092;11.556;2022-09-16T18:40:14;4.80;;;1.27;;
5418;SDS011;2732;52.092;11.556;2022-09-16T18:45:15;3.33;;;0.83;;
5418;SDS011;2732;52.092;11.556;2022-09-16T18:50:16;4.63;;;1.10;;
5418;SDS011;2732;52.092;11.556;2022-09-16T18:55:17;3.10;;;1.00;;
5418;SDS011;2732;52.092;11.556;2022-09-16T19:00:17;3.53;;;0.80;;
5418;SDS011;2732;52.092;11.556;2022-09-16T19:05:18;1.63;;;0.97;;
5418;SDS011;2732;52.092;11.556;2022-09-16T19:10:20;4.50;;;1.20;;
5418;SDS011;2732;52.092;11.556;2022-09-16T19:15:21;5.23;;;1.03;;
5418;SDS011;2732;52.092;11.556;2022-09-16T19:20:23;8.73;;;1.13;;
5418;SDS011;2732;52.092;11.556;2022-09-16T19:25:24;4.30;;;1.20;;
5418;SDS011;2732;52.092;11.556;2022-09-16T19:30:25;2.40;;;0.80;;
5418;SDS011;2732;52.092;11.556;2022-09-16T19:35:28;5.27;;;0.93;;
5418;SDS011;2732;52.092;11.556;2022-09-16T19:40:30;5.37;;;1.10;;
5418;SDS011;2732;52.092;11.556;2022-09-16T19:45:31;6.13;;;0.83;;
5418;SDS011;2732;52.092;11.556;2022-09-16T19:50:32;4.53;;;1.07;;
5418;SDS011;2732;52.092;11.556;2022-09-16T19:55:33;4.50;;;0.90;;
5418;SDS011;2732;52.092;11.556;2022-09-16T20:00:34;7.80;;;1.00;;
5418;SDS011;2732;52.092;11.556;2022-09-16T20:05:38;16.83;;;1.43;;
5418;SDS011;2732;52.092;11.556;2022-09-16T20:10:38;6.27;;;1.30;;
5418;SDS011;2732;52.092;11.556;2022-09-16T20:15:39;2.87;;;0.87;;
5418;SDS011;2732;52.092;11.556;2022-09-16T20:20:39;3.57;;;1.37;;
5418;SDS011;2732;52.092;11.556;2022-09-16T20:25:40;5.77;;;1.10;;
5418;SDS011;2732;52.092;11.556;2022-09-16T20:30:44;1.50;;;0.93;;
5418;SDS011;2732;52.092;11.556;2022-09-16T20:35:45;1.53;;;0.60;;
5418;SDS011;2732;52.092;11.556;2022-09-16T20:40:46;7.93;;;1.20;;
5418;SDS011;2732;52.092;11.556;2022-09-16T20:45:48;3.97;;;0.73;;
5418;SDS011;2732;52.092;11.556;2022-09-16T20:50:49;3.23;;;0.53;;
5418;SDS011;2732;52.092;11.556;2022-09-16T20:55:49;8.10;;;1.00;;
5418;SDS011;2732;52.092;11.556;2022-09-16T21:00:50;2.13;;;0.80;;
5418;SDS011;2732;52.092;11.556;2022-09-16T21:05:50;7.23;;;0.80;;
5418;SDS011;2732;52.092;11.556;2022-09-16T21:10:51;1.33;;;1.10;;
5418;SDS011;2732;52.092;11.556;2022-09-16T21:15:58;3.73;;;1.07;;
5418;SDS011;2732;52.092;11.556;2022-09-16T21:21:03;8.57;;;0.80;;
5418;SDS011;2732;52.092;11.556;2022-09-16T21:26:08;3.73;;;1.07;;
5418;SDS011;2732;52.092;11.556;2022-09-16T21:31:19;1.90;;;1.00;;
5418;SDS011;2732;52.092;11.556;2022-09-16T21:36:20;3.20;;;0.67;;
5418;SDS011;2732;52.092;11.556;2022-09-16T21:41:23;4.97;;;1.07;;
5418;SDS011;2732;52.092;11.556;2022-09-16T21:46:29;4.03;;;1.33;;
5418;SDS011;2732;52.092;11.556;2022-09-16T21:51:36;2.57;;;0.80;;
5418;SDS011;2732;52.092;11.556;2022-09-16T21:56:37;1.27;;;0.60;;
5418;SDS011;2732;52.092;11.556;2022-09-16T22:01:39;3.90;;;0.87;;
5418;SDS011;2732;52.092;11.556;2022-09-16T22:06:39;10.87;;;1.53;;
5418;SDS011;2732;52.092;11.556;2022-09-16T22:11:40;3.73;;;1.00;;
5418;SDS011;2732;52.092;11.556;2022-09-16T22:16:41;6.67;;;1.43;;
5418;SDS011;2732;52.092;11.556;2022-09-16T22:21:44;2.97;;;0.70;;
5418;SDS011;2732;52.092;11.556;2022-09-16T22:26:50;2.43;;;1.30;;
5418;SDS011;2732;52.092;11.556;2022-09-16T22:31:51;5.13;;;0.93;;
5418;SDS011;2732;52.092;11.556;2022-09-16T22:36:51;7.37;;;1.57;;
5418;SDS011;2732;52.092;11.556;2022-09-16T22:41:52;5.23;;;1.30;;
5418;SDS011;2732;52.092;11.556;2022-09-16T22:46:53;2.33;;;0.77;;
5418;SDS011;2732;52.092;11.556;2022-09-16T22:51:53;0.93;;;0.73;;
5418;SDS011;2732;52.092;11.556;2022-09-16T22:56:54;1.57;;;0.90;;
5418;SDS011;2732;52.092;11.556;2022-09-16T23:01:55;1.10;;;0.67;;
5418;SDS011;2732;52.092;11.556;2022-09-16T23:06:56;2.60;;;1.10;;
5418;SDS011;2732;52.092;11.556;2022-09-16T23:11:56;2.20;;;0.83;;
5418;SDS011;2732;52.092;11.556;2022-09-16T23:16:58;1.27;;;0.80;;
5418;SDS011;2732;52.092;11.556;2022-09-16T23:21:59;0.80;;;0.70;;
5418;SDS011;2732;52.092;11.556;2022-09-16T23:26:59;0.80;;;0.80;;
5418;SDS011;2732;52.092;11.556;2022-09-16T23:32:00;2.83;;;0.70;;
5418;SDS011;2732;52.092;11.556;2022-09-16T23:37:03;0.77;;;0.57;;
5418;SDS011;2732;52.092;11.556;2022-09-16T23:42:03;3.60;;;0.93;;
5418;SDS011;2732;52.092;11.556;2022-09-16T23:47:04;0.87;;;0.70;;
5418;SDS011;2732;52.092;11.556;2022-09-16T23:52:05;1.83;;;0.80;;
5418;SDS011;2732;52.092;11.556;2022-09-16T23:57:07;1.73;;;0.77;;
